sensor_id;sensor_type;location;lat;lon;timestamp;pressure;altitude;pressure_sealevel;temperature;humidity
51603;BME280;37954;51.980;5.850;2023-03-24T00:02:16;99512.91;;;12.69;90.20
51603;BME280;37954;51.980;5.850;2023-03-24T00:06:28;99502.94;;;12.69;90.35
51603;BME280;37954;51.980;5.850;2023-03-24T00:10:44;99492.16;;;12.64;90.26
51603;BME280;37954;51.980;5.850;2023-03-24T00:14:58;99491.38;;;12.64;91.04
51603;BME280;37954;51.980;5.850;2023-03-24T00:19:13;99503.75;;;12.70;91.25
51603;BME280;37954;51.980;5.850;2023-03-24T00:23:27;99489.22;;;12.61;91.84
51603;BME280;37954;51.980;5.850;2023-03-24T00:27:42;99487.06;;;12.68;91.79
51603;BME280;37954;51.980;5.850;2023-03-24T00:31:59;99489.47;;;12.69;91.91
51603;BME280;37954;51.980;5.850;2023-03-24T00:36:11;99463.34;;;12.65;91.79
51603;BME280;37954;51.980;5.850;2023-03-24T00:40:23;99456.88;;;12.61;92.40
51603;BME280;37954;51.980;5.850;2023-03-24T00:44:35;99449.34;;;12.68;92.63
51603;BME280;37954;51.980;5.850;2023-03-24T00:48:48;99436.94;;;12.57;93.40
51603;BME280;37954;51.980;5.850;2023-03-24T00:53:01;99423.75;;;12.55;93.40
51603;BME280;37954;51.980;5.850;2023-03-24T00:57:14;99412.97;;;12.55;93.47
51603;BME280;37954;51.980;5.850;2023-03-24T01:01:35;99439.38;;;12.68;93.82
51603;BME280;37954;51.980;5.850;2023-03-24T01:05:48;99430.47;;;12.68;93.95
51603;BME280;37954;51.980;5.850;2023-03-24T01:10:00;99400.06;;;12.62;93.50
51603;BME280;37954;51.980;5.850;2023-03-24T01:14:12;99415.66;;;12.75;93.42
51603;BME280;37954;51.980;5.850;2023-03-24T01:18:24;99395.19;;;12.64;93.75
51603;BME280;37954;51.980;5.850;2023-03-24T01:22:40;99388.72;;;12.70;93.29
51603;BME280;37954;51.980;5.850;2023-03-24T01:26:55;99387.91;;;12.75;93.45
51603;BME280;37954;51.980;5.850;2023-03-24T01:31:08;99382.22;;;12.81;93.40
51603;BME280;37954;51.980;5.850;2023-03-24T01:35:21;99384.66;;;12.88;93.42
51603;BME280;37954;51.980;5.850;2023-03-24T01:39:33;99365.53;;;12.84;93.05
51603;BME280;37954;51.980;5.850;2023-03-24T01:43:45;99349.13;;;12.81;93.52
51603;BME280;37954;51.980;5.850;2023-03-24T01:47:57;99361.50;;;12.92;93.40
51603;BME280;37954;51.980;5.850;2023-03-24T01:52:14;99344.50;;;12.81;93.47
51603;BME280;37954;51.980;5.850;2023-03-24T01:56:32;99337.22;;;12.82;93.78
51603;BME280;37954;51.980;5.850;2023-03-24T02:00:45;99332.41;;;12.79;94.44
51603;BME280;37954;51.980;5.850;2023-03-24T02:05:18;99332.94;;;12.81;94.24
51603;BME280;37954;51.980;5.850;2023-03-24T02:09:29;99325.66;;;12.81;94.61
51603;BME280;37954;51.980;5.850;2023-03-24T02:13:41;99334.53;;;12.82;94.86
51603;BME280;37954;51.980;5.850;2023-03-24T02:45:35;99314.06;;;12.91;96.13
51603;BME280;37954;51.980;5.850;2023-03-24T02:50:08;99313.25;;;12.85;96.42
51603;BME280;37954;51.980;5.850;2023-03-24T02:58:50;99322.16;;;12.86;97.00
51603;BME280;37954;51.980;5.850;2023-03-24T03:03:09;99314.59;;;12.88;97.37
51603;BME280;37954;51.980;5.850;2023-03-24T03:07:26;99318.91;;;12.84;97.04
51603;BME280;37954;51.980;5.850;2023-03-24T03:11:43;99374.16;;;12.86;97.26
51603;BME280;37954;51.980;5.850;2023-03-24T03:16:00;99388.19;;;12.78;96.87
51603;BME280;37954;51.980;5.850;2023-03-24T03:20:21;99394.38;;;12.59;94.80
51603;BME280;37954;51.980;5.850;2023-03-24T03:24:37;99405.16;;;12.48;93.58
51603;BME280;37954;51.980;5.850;2023-03-24T03:28:52;99412.13;;;12.34;93.21
51603;BME280;37954;51.980;5.850;2023-03-24T03:33:14;99425.59;;;12.29;92.79
51603;BME280;37954;51.980;5.850;2023-03-24T03:37:38;99418.03;;;12.16;92.07
51603;BME280;37954;51.980;5.850;2023-03-24T03:41:57;99411.56;;;12.07;92.11
51603;BME280;37954;51.980;5.850;2023-03-24T03:46:10;99425.81;;;12.02;92.01
51603;BME280;37954;51.980;5.850;2023-03-24T03:50:23;99440.28;;;11.86;90.95
51603;BME280;37954;51.980;5.850;2023-03-24T03:54:36;99463.31;;;11.72;89.61
51603;BME280;37954;51.980;5.850;2023-03-24T03:58:49;99474.28;;;11.60;88.81
51603;BME280;37954;51.980;5.850;2023-03-24T04:07:46;99486.03;;;11.44;88.87
51603;BME280;37954;51.980;5.850;2023-03-24T04:17:37;99507.22;;;11.35;88.94
51603;BME280;37954;51.980;5.850;2023-03-24T04:26:38;99530.34;;;11.36;88.98
51603;BME280;37954;51.980;5.850;2023-03-24T04:31:01;99538.88;;;11.28;88.60
51603;BME280;37954;51.980;5.850;2023-03-24T04:35:34;99539.19;;;11.32;89.12
51603;BME280;37954;51.980;5.850;2023-03-24T04:40:02;99546.13;;;11.28;88.71
51603;BME280;37954;51.980;5.850;2023-03-24T04:44:17;99551.75;;;11.21;88.58
51603;BME280;37954;51.980;5.850;2023-03-24T04:48:54;99570.00;;;11.19;88.40
51603;BME280;37954;51.980;5.850;2023-03-24T04:53:15;99573.25;;;11.26;88.07
51603;BME280;37954;51.980;5.850;2023-03-24T04:57:27;99588.31;;;11.22;88.18
51603;BME280;37954;51.980;5.850;2023-03-24T05:01:44;99583.88;;;11.11;87.62
51603;BME280;37954;51.980;5.850;2023-03-24T05:06:20;99592.19;;;11.04;86.83
51603;BME280;37954;51.980;5.850;2023-03-24T05:10:31;99583.00;;;11.00;86.99
51603;BME280;37954;51.980;5.850;2023-03-24T05:14:43;99594.00;;;10.99;87.06
51603;BME280;37954;51.980;5.850;2023-03-24T05:18:55;99615.41;;;10.89;86.52
51603;BME280;37954;51.980;5.850;2023-03-24T05:23:08;99617.63;;;10.75;86.90
51603;BME280;37954;51.980;5.850;2023-03-24T05:27:19;99611.53;;;10.58;86.11
51603;BME280;37954;51.980;5.850;2023-03-24T05:31:31;99625.41;;;10.50;86.64
51603;BME280;37954;51.980;5.850;2023-03-24T05:35:52;99631.03;;;10.48;86.85
51603;BME280;37954;51.980;5.850;2023-03-24T05:40:04;99642.19;;;10.40;86.77
51603;BME280;37954;51.980;5.850;2023-03-24T05:44:37;99644.34;;;10.38;87.01
51603;BME280;37954;51.980;5.850;2023-03-24T05:48:54;99648.94;;;10.42;87.42
51603;BME280;37954;51.980;5.850;2023-03-24T05:53:11;99673.81;;;10.55;87.83
51603;BME280;37954;51.980;5.850;2023-03-24T05:58:01;99679.13;;;10.71;88.28
51603;BME280;37954;51.980;5.850;2023-03-24T06:02:40;99684.28;;;10.78;88.34
51603;BME280;37954;51.980;5.850;2023-03-24T06:07:06;99689.50;;;10.85;87.71
51603;BME280;37954;51.980;5.850;2023-03-24T06:11:21;99695.75;;;10.90;87.35
51603;BME280;37954;51.980;5.850;2023-03-24T06:15:44;99698.53;;;11.00;87.42
51603;BME280;37954;51.980;5.850;2023-03-24T06:20:16;99701.56;;;11.09;86.80
51603;BME280;37954;51.980;5.850;2023-03-24T06:24:49;99701.94;;;11.18;86.69
51603;BME280;37954;51.980;5.850;2023-03-24T06:29:01;99694.69;;;11.18;86.38
51603;BME280;37954;51.980;5.850;2023-03-24T06:33:17;99703.00;;;11.16;85.84
51603;BME280;37954;51.980;5.850;2023-03-24T06:37:29;99710.50;;;11.14;85.50
51603;BME280;37954;51.980;5.850;2023-03-24T06:41:42;99718.88;;;11.18;85.65
51603;BME280;37954;51.980;5.850;2023-03-24T06:45:55;99718.69;;;11.25;85.19
51603;BME280;37954;51.980;5.850;2023-03-24T06:50:07;99721.88;;;11.22;84.90
51603;BME280;37954;51.980;5.850;2023-03-24T06:54:19;99718.41;;;11.26;84.57
51603;BME280;37954;51.980;5.850;2023-03-24T06:58:33;99729.75;;;11.28;84.21
51603;BME280;37954;51.980;5.850;2023-03-24T07:02:48;99733.63;;;11.37;84.05
51603;BME280;37954;51.980;5.850;2023-03-24T07:07:00;99736.63;;;11.41;83.70
51603;BME280;37954;51.980;5.850;2023-03-24T07:11:44;99751.72;;;11.47;83.64
51603;BME280;37954;51.980;5.850;2023-03-24T07:15:57;99750.16;;;11.51;83.17
51603;BME280;37954;51.980;5.850;2023-03-24T07:20:08;99758.59;;;11.60;82.92
51603;BME280;37954;51.980;5.850;2023-03-24T07:24:33;99766.88;;;11.80;82.88
51603;BME280;37954;51.980;5.850;2023-03-24T07:29:06;99758.28;;;11.83;81.84
51603;BME280;37954;51.980;5.850;2023-03-24T07:33:38;99772.53;;;12.10;81.37
51603;BME280;37954;51.980;5.850;2023-03-24T07:37:49;99775.09;;;12.27;81.27
51603;BME280;37954;51.980;5.850;2023-03-24T07:42:01;99770.63;;;12.43;80.96
51603;BME280;37954;51.980;5.850;2023-03-24T07:46:48;99767.94;;;12.43;79.89
51603;BME280;37954;51.980;5.850;2023-03-24T07:51:00;99764.69;;;12.41;79.58
51603;BME280;37954;51.980;5.850;2023-03-24T07:55:30;99765.97;;;12.75;79.47
51603;BME280;37954;51.980;5.850;2023-03-24T07:59:52;99772.97;;;13.34;78.31
51603;BME280;37954;51.980;5.850;2023-03-24T08:04:30;99778.78;;;14.18;77.15
51603;BME280;37954;51.980;5.850;2023-03-24T08:08:54;99787.19;;;15.27;74.50
51603;BME280;37954;51.980;5.850;2023-03-24T08:13:06;99786.00;;;16.31;71.38
51603;BME280;37954;51.980;5.850;2023-03-24T08:17:17;99790.50;;;16.99;67.65
51603;BME280;37954;51.980;5.850;2023-03-24T08:21:29;99796.56;;;17.15;64.18
51603;BME280;37954;51.980;5.850;2023-03-24T08:25:40;99803.06;;;16.95;62.59
51603;BME280;37954;51.980;5.850;2023-03-24T08:29:52;99827.66;;;16.07;62.41
51603;BME280;37954;51.980;5.850;2023-03-24T08:34:04;99813.91;;;15.98;62.81
51603;BME280;37954;51.980;5.850;2023-03-24T08:38:16;99820.06;;;15.64;63.25
51603;BME280;37954;51.980;5.850;2023-03-24T08:42:29;99825.13;;;15.81;63.25
51603;BME280;37954;51.980;5.850;2023-03-24T08:46:41;99839.38;;;15.97;63.59
51603;BME280;37954;51.980;5.850;2023-03-24T08:50:53;99829.03;;;16.72;62.16
51603;BME280;37954;51.980;5.850;2023-03-24T08:55:05;99821.69;;;16.78;61.21
51603;BME280;37954;51.980;5.850;2023-03-24T08:59:17;99834.50;;;16.67;60.92
51603;BME280;37954;51.980;5.850;2023-03-24T09:03:29;99834.50;;;17.20;60.07
51603;BME280;37954;51.980;5.850;2023-03-24T09:07:42;99840.56;;;17.35;59.17
51603;BME280;37954;51.980;5.850;2023-03-24T09:11:54;99837.41;;;17.71;58.12
51603;BME280;37954;51.980;5.850;2023-03-24T09:16:05;99845.31;;;17.49;57.33
51603;BME280;37954;51.980;5.850;2023-03-24T09:20:17;99857.84;;;17.45;57.45
51603;BME280;37954;51.980;5.850;2023-03-24T09:24:29;99855.84;;;17.02;56.79
51603;BME280;37954;51.980;5.850;2023-03-24T09:28:40;99864.47;;;16.47;57.68
51603;BME280;37954;51.980;5.850;2023-03-24T09:32:52;99851.72;;;16.13;58.44
51603;BME280;37954;51.980;5.850;2023-03-24T09:37:06;99860.47;;;16.78;58.94
51603;BME280;37954;51.980;5.850;2023-03-24T09:41:28;99850.50;;;16.68;58.31
51603;BME280;37954;51.980;5.850;2023-03-24T09:45:56;99860.38;;;17.12;58.02
51603;BME280;37954;51.980;5.850;2023-03-24T09:50:55;99863.84;;;17.65;56.94
51603;BME280;37954;51.980;5.850;2023-03-24T09:55:15;99851.53;;;17.25;56.15
51603;BME280;37954;51.980;5.850;2023-03-24T09:59:37;99869.78;;;17.20;56.81
51603;BME280;37954;51.980;5.850;2023-03-24T10:03:58;99881.72;;;17.90;57.23
51603;BME280;37954;51.980;5.850;2023-03-24T10:08:18;99882.97;;;18.87;54.83
51603;BME280;37954;51.980;5.850;2023-03-24T10:12:36;99867.22;;;18.51;53.19
51603;BME280;37954;51.980;5.850;2023-03-24T10:17:02;99875.69;;;18.82;53.23
51603;BME280;37954;51.980;5.850;2023-03-24T10:21:20;99873.47;;;18.52;52.61
51603;BME280;37954;51.980;5.850;2023-03-24T10:25:59;99867.88;;;19.08;53.19
51603;BME280;37954;51.980;5.850;2023-03-24T10:34:31;99898.91;;;21.06;47.76
51603;BME280;37954;51.980;5.850;2023-03-24T10:38:52;99885.78;;;21.16;46.37
51603;BME280;37954;51.980;5.850;2023-03-24T10:43:05;99883.38;;;22.11;45.75
51603;BME280;37954;51.980;5.850;2023-03-24T10:47:25;99880.53;;;21.60;43.38
51603;BME280;37954;51.980;5.850;2023-03-24T10:51:44;99888.81;;;21.15;43.90
51603;BME280;37954;51.980;5.850;2023-03-24T10:55:57;99901.38;;;20.40;44.12
51603;BME280;37954;51.980;5.850;2023-03-24T11:00:22;99890.56;;;19.03;45.46
51603;BME280;37954;51.980;5.850;2023-03-24T11:04:39;99895.66;;;18.40;47.50
51603;BME280;37954;51.980;5.850;2023-03-24T11:09:09;99891.28;;;18.06;49.44
51603;BME280;37954;51.980;5.850;2023-03-24T11:13:30;99900.28;;;17.59;51.10
51603;BME280;37954;51.980;5.850;2023-03-24T11:17:44;99908.78;;;17.00;53.09
51603;BME280;37954;51.980;5.850;2023-03-24T11:22:00;99915.00;;;16.77;54.31
51603;BME280;37954;51.980;5.850;2023-03-24T11:26:17;99924.72;;;16.44;56.84
51603;BME280;37954;51.980;5.850;2023-03-24T11:30:49;99934.34;;;16.16;59.40
51603;BME280;37954;51.980;5.850;2023-03-24T11:35:05;99936.97;;;16.31;60.60
51603;BME280;37954;51.980;5.850;2023-03-24T11:39:21;99933.25;;;16.61;60.82
51603;BME280;37954;51.980;5.850;2023-03-24T11:43:34;99905.16;;;16.81;59.34
51603;BME280;37954;51.980;5.850;2023-03-24T11:47:49;99904.38;;;17.09;57.80
51603;BME280;37954;51.980;5.850;2023-03-24T11:52:11;99910.16;;;18.17;57.12
51603;BME280;37954;51.980;5.850;2023-03-24T11:56:34;99911.75;;;18.55;55.11
51603;BME280;37954;51.980;5.850;2023-03-24T12:01:05;99913.53;;;18.27;53.92
51603;BME280;37954;51.980;5.850;2023-03-24T12:05:32;99930.56;;;17.48;54.55
51603;BME280;37954;51.980;5.850;2023-03-24T12:19:41;99968.00;;;14.84;65.81
51603;BME280;37954;51.980;5.850;2023-03-24T12:23:59;99953.38;;;14.65;66.50
51603;BME280;37954;51.980;5.850;2023-03-24T12:41:48;99938.66;;;14.20;67.55
51603;BME280;37954;51.980;5.850;2023-03-24T12:50:54;99914.47;;;14.71;68.76
51603;BME280;37954;51.980;5.850;2023-03-24T12:55:23;99903.31;;;15.23;68.70
51603;BME280;37954;51.980;5.850;2023-03-24T12:59:47;99912.03;;;15.90;68.07
51603;BME280;37954;51.980;5.850;2023-03-24T13:04:07;99922.38;;;16.27;66.87
51603;BME280;37954;51.980;5.850;2023-03-24T13:08:27;99896.88;;;16.67;66.54
51603;BME280;37954;51.980;5.850;2023-03-24T13:13:03;99908.78;;;16.71;64.96
51603;BME280;37954;51.980;5.850;2023-03-24T13:17:29;99896.19;;;16.46;65.20
51603;BME280;37954;51.980;5.850;2023-03-24T13:21:44;99898.28;;;16.20;64.81
51603;BME280;37954;51.980;5.850;2023-03-24T13:30:32;99906.50;;;15.41;66.46
51603;BME280;37954;51.980;5.850;2023-03-24T13:35:05;99913.91;;;14.79;68.29
51603;BME280;37954;51.980;5.850;2023-03-24T13:39:21;99897.63;;;14.39;68.73
51603;BME280;37954;51.980;5.850;2023-03-24T13:43:34;99896.78;;;13.98;68.61
51603;BME280;37954;51.980;5.850;2023-03-24T13:57:14;99917.97;;;13.69;69.67
51603;BME280;37954;51.980;5.850;2023-03-24T14:05:59;99911.66;;;14.15;69.80
51603;BME280;37954;51.980;5.850;2023-03-24T14:14:27;99936.25;;;14.14;68.84
51603;BME280;37954;51.980;5.850;2023-03-24T14:18:40;99916.47;;;13.98;69.43
51603;BME280;37954;51.980;5.850;2023-03-24T14:22:55;99904.00;;;13.87;70.02
51603;BME280;37954;51.980;5.850;2023-03-24T14:27:29;99930.53;;;14.05;70.49
51603;BME280;37954;51.980;5.850;2023-03-24T14:31:49;99902.63;;;13.74;70.91
51603;BME280;37954;51.980;5.850;2023-03-24T14:36:37;99934.47;;;13.67;71.94
51603;BME280;37954;51.980;5.850;2023-03-24T14:40:57;99904.88;;;13.30;73.14
51603;BME280;37954;51.980;5.850;2023-03-24T14:49:43;99867.84;;;13.88;75.85
51603;BME280;37954;51.980;5.850;2023-03-24T14:53:56;99862.53;;;14.18;74.42
51603;BME280;37954;51.980;5.850;2023-03-24T14:58:24;99876.31;;;14.32;73.32
51603;BME280;37954;51.980;5.850;2023-03-24T15:02:49;99885.50;;;14.31;73.26
51603;BME280;37954;51.980;5.850;2023-03-24T15:07:02;99869.50;;;14.09;73.02
51603;BME280;37954;51.980;5.850;2023-03-24T15:11:49;99892.50;;;14.17;72.75
51603;BME280;37954;51.980;5.850;2023-03-24T15:24:36;99857.31;;;13.81;72.62
51603;BME280;37954;51.980;5.850;2023-03-24T15:28:56;99857.03;;;13.78;73.12
51603;BME280;37954;51.980;5.850;2023-03-24T15:33:09;99861.88;;;13.86;73.21
51603;BME280;37954;51.980;5.850;2023-03-24T15:37:23;99864.38;;;13.98;73.50
51603;BME280;37954;51.980;5.850;2023-03-24T15:41:35;99849.25;;;14.02;73.04
51603;BME280;37954;51.980;5.850;2023-03-24T15:45:52;99835.16;;;13.79;72.61
51603;BME280;37954;51.980;5.850;2023-03-24T15:50:32;99833.28;;;13.80;72.51
51603;BME280;37954;51.980;5.850;2023-03-24T15:54:44;99833.81;;;13.77;72.30
51603;BME280;37954;51.980;5.850;2023-03-24T15:59:07;99842.75;;;13.92;72.92
51603;BME280;37954;51.980;5.850;2023-03-24T16:03:23;99847.88;;;14.04;73.50
51603;BME280;37954;51.980;5.850;2023-03-24T16:07:40;99830.63;;;14.20;73.39
51603;BME280;37954;51.980;5.850;2023-03-24T16:11:52;99821.72;;;14.25;72.39
51603;BME280;37954;51.980;5.850;2023-03-24T16:20:24;99827.66;;;14.17;71.73
51603;BME280;37954;51.980;5.850;2023-03-24T16:24:36;99821.47;;;14.16;72.10
51603;BME280;37954;51.980;5.850;2023-03-24T16:28:48;99822.00;;;14.13;72.35
51603;BME280;37954;51.980;5.850;2023-03-24T16:33:00;99818.47;;;13.98;71.85
51603;BME280;37954;51.980;5.850;2023-03-24T16:37:12;99813.03;;;13.67;72.51
51603;BME280;37954;51.980;5.850;2023-03-24T16:41:24;99809.72;;;13.45;72.92
51603;BME280;37954;51.980;5.850;2023-03-24T16:45:36;99813.16;;;13.30;73.35
51603;BME280;37954;51.980;5.850;2023-03-24T16:49:48;99813.13;;;13.25;74.16
51603;BME280;37954;51.980;5.850;2023-03-24T16:53:59;99816.16;;;13.39;74.33
51603;BME280;37954;51.980;5.850;2023-03-24T16:58:13;99818.06;;;13.43;74.66
51603;BME280;37954;51.980;5.850;2023-03-24T17:02:25;99823.13;;;13.35;74.88
51603;BME280;37954;51.980;5.850;2023-03-24T17:06:39;99821.50;;;13.29;75.39
51603;BME280;37954;51.980;5.850;2023-03-24T17:10:52;99822.63;;;13.33;75.38
51603;BME280;37954;51.980;5.850;2023-03-24T17:15:06;99802.34;;;13.25;76.29
51603;BME280;37954;51.980;5.850;2023-03-24T17:19:19;99811.22;;;13.20;76.01
51603;BME280;37954;51.980;5.850;2023-03-24T17:23:31;99814.44;;;13.17;75.97
51603;BME280;37954;51.980;5.850;2023-03-24T17:27:45;99814.16;;;13.14;75.93
51603;BME280;37954;51.980;5.850;2023-03-24T17:31:58;99814.38;;;13.07;76.05
51603;BME280;37954;51.980;5.850;2023-03-24T17:36:14;99822.75;;;13.11;76.20
51603;BME280;37954;51.980;5.850;2023-03-24T17:40:26;99803.28;;;13.04;76.07
51603;BME280;37954;51.980;5.850;2023-03-24T17:44:38;99787.38;;;12.97;75.76
51603;BME280;37954;51.980;5.850;2023-03-24T17:48:50;99794.44;;;13.08;75.13
51603;BME280;37954;51.980;5.850;2023-03-24T17:53:01;99789.81;;;13.04;74.98
51603;BME280;37954;51.980;5.850;2023-03-24T17:57:13;99802.50;;;13.08;74.75
51603;BME280;37954;51.980;5.850;2023-03-24T18:01:25;99816.63;;;13.15;74.55
51603;BME280;37954;51.980;5.850;2023-03-24T18:05:40;99804.66;;;13.06;74.65
51603;BME280;37954;51.980;5.850;2023-03-24T18:09:54;99786.81;;;13.00;74.84
51603;BME280;37954;51.980;5.850;2023-03-24T18:14:05;99808.69;;;12.99;74.41
51603;BME280;37954;51.980;5.850;2023-03-24T18:18:19;99796.19;;;12.87;73.75
51603;BME280;37954;51.980;5.850;2023-03-24T18:22:31;99793.97;;;12.74;73.55
51603;BME280;37954;51.980;5.850;2023-03-24T18:26:43;99801.00;;;12.75;73.75
51603;BME280;37954;51.980;5.850;2023-03-24T18:30:54;99789.88;;;12.62;73.90
51603;BME280;37954;51.980;5.850;2023-03-24T18:35:10;99776.16;;;12.31;73.66
51603;BME280;37954;51.980;5.850;2023-03-24T18:39:26;99789.56;;;12.21;73.24
51603;BME280;37954;51.980;5.850;2023-03-24T18:43:39;99807.41;;;12.27;73.18
51603;BME280;37954;51.980;5.850;2023-03-24T18:47:58;99789.22;;;12.12;73.65
51603;BME280;37954;51.980;5.850;2023-03-24T18:52:10;99794.81;;;12.06;73.77
51603;BME280;37954;51.980;5.850;2023-03-24T18:56:22;99805.38;;;12.12;74.09
51603;BME280;37954;51.980;5.850;2023-03-24T19:00:34;99794.53;;;12.02;74.35
51603;BME280;37954;51.980;5.850;2023-03-24T19:04:46;99800.28;;;12.16;75.07
51603;BME280;37954;51.980;5.850;2023-03-24T19:08:58;99806.03;;;12.25;74.82
51603;BME280;37954;51.980;5.850;2023-03-24T19:13:11;99813.63;;;12.33;75.15
51603;BME280;37954;51.980;5.850;2023-03-24T19:17:23;99805.47;;;12.23;74.55
51603;BME280;37954;51.980;5.850;2023-03-24T19:21:35;99818.13;;;12.22;74.33
51603;BME280;37954;51.980;5.850;2023-03-24T19:25:48;99799.41;;;12.05;74.43
51603;BME280;37954;51.980;5.850;2023-03-24T19:30:00;99825.56;;;12.10;74.80
51603;BME280;37954;51.980;5.850;2023-03-24T19:34:15;99805.22;;;11.97;75.04
51603;BME280;37954;51.980;5.850;2023-03-24T19:38:28;99802.16;;;11.83;75.09
51603;BME280;37954;51.980;5.850;2023-03-24T19:42:41;99813.66;;;11.79;75.98
51603;BME280;37954;51.980;5.850;2023-03-24T19:46:55;99820.75;;;11.63;76.44
51603;BME280;37954;51.980;5.850;2023-03-24T19:51:07;99798.25;;;11.47;76.64
51603;BME280;37954;51.980;5.850;2023-03-24T19:55:18;99804.91;;;11.40;77.25
51603;BME280;37954;51.980;5.850;2023-03-24T19:59:30;99797.75;;;11.29;77.28
51603;BME280;37954;51.980;5.850;2023-03-24T20:03:48;99797.91;;;11.17;77.90
51603;BME280;37954;51.980;5.850;2023-03-24T20:08:00;99808.09;;;11.15;78.01
51603;BME280;37954;51.980;5.850;2023-03-24T20:12:12;99789.06;;;11.00;78.36
51603;BME280;37954;51.980;5.850;2023-03-24T20:16:24;99792.19;;;10.92;78.58
51603;BME280;37954;51.980;5.850;2023-03-24T20:20:36;99790.31;;;10.92;79.22
51603;BME280;37954;51.980;5.850;2023-03-24T20:24:48;99788.16;;;10.89;78.68
51603;BME280;37954;51.980;5.850;2023-03-24T20:29:00;99788.25;;;10.77;79.50
51603;BME280;37954;51.980;5.850;2023-03-24T20:33:12;99781.75;;;10.73;79.74
51603;BME280;37954;51.980;5.850;2023-03-24T20:37:24;99774.69;;;10.67;80.25
51603;BME280;37954;51.980;5.850;2023-03-24T20:41:36;99771.34;;;10.60;79.91
51603;BME280;37954;51.980;5.850;2023-03-24T20:45:47;99779.88;;;10.57;79.95
51603;BME280;37954;51.980;5.850;2023-03-24T20:49:59;99794.69;;;10.60;80.14
51603;BME280;37954;51.980;5.850;2023-03-24T20:54:12;99764.31;;;10.37;80.35
51603;BME280;37954;51.980;5.850;2023-03-24T20:58:23;99767.06;;;10.42;80.61
51603;BME280;37954;51.980;5.850;2023-03-24T21:02:41;99785.22;;;10.52;80.62
51603;BME280;37954;51.980;5.850;2023-03-24T21:06:53;99779.75;;;10.47;80.62
51603;BME280;37954;51.980;5.850;2023-03-24T21:11:05;99776.16;;;10.58;80.42
51603;BME280;37954;51.980;5.850;2023-03-24T21:15:17;99782.91;;;10.61;81.00
51603;BME280;37954;51.980;5.850;2023-03-24T21:19:29;99790.72;;;10.62;80.48
51603;BME280;37954;51.980;5.850;2023-03-24T21:28:46;99768.84;;;10.54;80.32
51603;BME280;37954;51.980;5.850;2023-03-24T21:32:58;99780.97;;;10.56;80.06
51603;BME280;37954;51.980;5.850;2023-03-24T21:37:10;99783.34;;;10.53;80.09
51603;BME280;37954;51.980;5.850;2023-03-24T21:41:37;99767.88;;;10.43;79.92
51603;BME280;37954;51.980;5.850;2023-03-24T21:46:17;99785.22;;;10.52;79.92
51603;BME280;37954;51.980;5.850;2023-03-24T21:50:55;99786.50;;;10.50;79.77
51603;BME280;37954;51.980;5.850;2023-03-24T21:55:08;99795.38;;;10.50;79.38
51603;BME280;37954;51.980;5.850;2023-03-24T21:59:20;99767.81;;;10.38;79.33
51603;BME280;37954;51.980;5.850;2023-03-24T22:03:32;99786.59;;;10.55;79.38
51603;BME280;37954;51.980;5.850;2023-03-24T22:07:45;99797.16;;;10.61;79.34
51603;BME280;37954;51.980;5.850;2023-03-24T22:11:57;99779.06;;;10.57;79.35
51603;BME280;37954;51.980;5.850;2023-03-24T22:16:09;99789.81;;;10.57;79.10
51603;BME280;37954;51.980;5.850;2023-03-24T22:20:22;99786.25;;;10.51;79.10
51603;BME280;37954;51.980;5.850;2023-03-24T22:24:39;99758.44;;;10.40;79.47
51603;BME280;37954;51.980;5.850;2023-03-24T22:28:59;99776.81;;;10.49;79.39
51603;BME280;37954;51.980;5.850;2023-03-24T22:33:12;99774.97;;;10.32;79.41
51603;BME280;37954;51.980;5.850;2023-03-24T22:37:24;99782.88;;;10.39;79.62
51603;BME280;37954;51.980;5.850;2023-03-24T22:41:36;99781.72;;;10.35;79.94
51603;BME280;37954;51.980;5.850;2023-03-24T22:45:48;99773.72;;;10.40;79.86
51603;BME280;37954;51.980;5.850;2023-03-24T22:50:00;99782.34;;;10.42;80.26
51603;BME280;37954;51.980;5.850;2023-03-24T22:54:12;99793.41;;;10.45;80.07
51603;BME280;37954;51.980;5.850;2023-03-24T22:58:30;99802.63;;;10.50;80.12
51603;BME280;37954;51.980;5.850;2023-03-24T23:02:42;99792.69;;;10.50;80.21
51603;BME280;37954;51.980;5.850;2023-03-24T23:06:53;99792.69;;;10.50;79.94
51603;BME280;37954;51.980;5.850;2023-03-24T23:11:07;99793.50;;;10.51;79.57
51603;BME280;37954;51.980;5.850;2023-03-24T23:15:20;99793.84;;;10.54;79.87
51603;BME280;37954;51.980;5.850;2023-03-24T23:19:35;99791.88;;;10.50;79.74
51603;BME280;37954;51.980;5.850;2023-03-24T23:23:47;99772.91;;;10.39;80.22
51603;BME280;37954;51.980;5.850;2023-03-24T23:28:00;99794.09;;;10.36;79.91
51603;BME280;37954;51.980;5.850;2023-03-24T23:32:12;99786.63;;;10.38;79.78
51603;BME280;37954;51.980;5.850;2023-03-24T23:36:24;99782.88;;;10.39;79.26
51603;BME280;37954;51.980;5.850;2023-03-24T23:40:39;99796.78;;;10.36;79.09
51603;BME280;37954;51.980;5.850;2023-03-24T23:44:50;99782.13;;;10.27;79.41
51603;BME280;37954;51.980;5.850;2023-03-24T23:49:06;99779.34;;;10.22;79.65
51603;BME280;37954;51.980;5.850;2023-03-24T23:53:18;99779.19;;;10.28;79.47
51603;BME280;37954;51.980;5.850;2023-03-24T23:57:30;99804.84;;;10.36;79.54
